createdAt,value
2018-10-01T00:00:54.928Z,1.90
2018-10-01T00:01:54.926Z,2.00
2018-10-01T00:02:54.924Z,2.10
2018-10-01T00:03:54.953Z,2.00
2018-10-01T00:04:54.911Z,1.90
2018-10-01T00:05:54.904Z,1.90
2018-10-01T00:06:54.905Z,2.10
2018-10-01T00:07:54.899Z,2.00
2018-10-01T00:08:54.934Z,2.10
2018-10-01T00:09:54.890Z,2.30
2018-10-01T00:10:54.891Z,2.20
2018-10-01T00:11:54.892Z,2.30
2018-10-01T00:12:54.880Z,2.10
2018-10-01T00:13:54.924Z,2.10
2018-10-01T00:14:54.862Z,2.00
2018-10-01T00:15:54.859Z,2.30
2018-10-01T00:16:54.858Z,1.90
2018-10-01T00:17:54.862Z,2.10
2018-10-01T00:18:54.905Z,2.20
2018-10-01T00:19:54.887Z,2.20
2018-10-01T00:20:54.870Z,2.20
2018-10-01T00:21:54.845Z,2.10
2018-10-01T00:22:54.845Z,2.20
2018-10-01T00:23:54.831Z,2.20
2018-10-01T00:24:54.892Z,2.10
2018-10-01T00:25:54.858Z,2.20
2018-10-01T00:26:54.832Z,2.10
2018-10-01T00:27:54.836Z,2.10
2018-10-01T00:28:54.801Z,2.30
2018-10-01T00:29:54.835Z,2.30
2018-10-01T00:30:54.790Z,2.30
2018-10-01T00:31:54.792Z,2.50
2018-10-01T00:32:54.778Z,2.70
2018-10-01T00:33:54.805Z,2.60
2018-10-01T00:34:54.810Z,3.00
2018-10-01T00:35:54.772Z,2.70
2018-10-01T00:36:54.772Z,2.80
2018-10-01T00:37:54.757Z,2.90
2018-10-01T00:38:54.769Z,2.80
2018-10-01T00:39:54.795Z,2.40
2018-10-01T00:40:54.775Z,2.60
2018-10-01T00:41:54.737Z,2.30
2018-10-01T00:42:54.737Z,2.20
2018-10-01T00:43:54.727Z,2.50
2018-10-01T00:44:54.752Z,2.20
2018-10-01T00:45:54.730Z,2.10
2018-10-01T00:46:54.752Z,2.80
2018-10-01T00:47:54.710Z,2.50
2018-10-01T00:48:54.703Z,2.90
2018-10-01T00:49:54.752Z,2.50
2018-10-01T00:50:54.697Z,3.70
2018-10-01T00:51:54.690Z,4.00
2018-10-01T00:52:54.727Z,4.10
2018-10-01T00:53:54.687Z,9.90
2018-10-01T00:54:54.726Z,6.10
2018-10-01T00:55:54.701Z,3.80
2018-10-01T00:56:54.669Z,3.30
2018-10-01T00:57:54.660Z,3.10
2018-10-01T00:58:54.700Z,3.70
2018-10-01T00:59:54.677Z,6.00
2018-10-01T01:00:54.687Z,5.10
2018-10-01T01:01:54.640Z,4.40
2018-10-01T01:02:54.635Z,4.10
2018-10-01T01:03:54.676Z,3.60
2018-10-01T01:04:54.625Z,3.50
2018-10-01T01:05:54.648Z,3.60
2018-10-01T01:06:54.673Z,3.30
2018-10-01T01:07:54.617Z,3.30
2018-10-01T01:08:54.610Z,2.90
2018-10-01T01:09:54.655Z,2.80
2018-10-01T01:10:54.603Z,2.80
2018-10-01T01:11:54.592Z,3.10
2018-10-01T01:12:54.616Z,2.50
2018-10-01T01:13:54.644Z,2.80
2018-10-01T01:14:54.617Z,2.50
2018-10-01T01:15:54.621Z,2.50
2018-10-01T01:16:54.598Z,2.10
2018-10-01T01:17:54.572Z,2.40
2018-10-01T01:18:54.568Z,2.40
2018-10-01T01:19:54.590Z,2.30
2018-10-01T01:20:54.561Z,2.50
2018-10-01T01:21:54.547Z,2.20
2018-10-01T01:22:54.543Z,2.10
2018-10-01T01:23:54.569Z,2.20
2018-10-01T01:24:54.539Z,2.20
2018-10-01T01:25:54.575Z,2.50
2018-10-01T01:26:54.535Z,2.40
2018-10-01T01:27:54.525Z,2.30
2018-10-01T01:28:54.561Z,2.10
2018-10-01T01:29:54.522Z,2.50
2018-10-01T01:30:54.534Z,2.50
2018-10-01T01:31:54.547Z,2.10
2018-10-01T01:32:54.497Z,2.40
2018-10-01T01:33:54.528Z,2.20
2018-10-01T01:34:54.499Z,2.50
2018-10-01T01:35:54.489Z,2.30
2018-10-01T01:36:54.481Z,2.60
2018-10-01T01:37:54.524Z,2.30
2018-10-01T01:38:54.475Z,2.50
2018-10-01T01:39:54.466Z,2.60
2018-10-01T01:40:54.460Z,2.60
2018-10-01T01:41:54.459Z,2.60
2018-10-01T01:42:54.480Z,2.40
2018-10-01T01:43:54.486Z,2.60
2018-10-01T01:44:54.454Z,2.30
2018-10-01T01:45:54.437Z,2.40
2018-10-01T01:46:54.435Z,2.40
2018-10-01T01:47:54.465Z,2.50
2018-10-01T01:48:54.423Z,2.40
2018-10-01T01:49:54.466Z,2.30
2018-10-01T01:50:54.412Z,2.40
2018-10-01T01:51:54.417Z,2.50
2018-10-01T01:52:54.450Z,2.40
2018-10-01T01:53:54.414Z,2.90
2018-10-01T01:54:54.400Z,2.80
2018-10-01T01:55:54.389Z,2.70
2018-10-01T01:56:54.387Z,2.80
2018-10-01T01:57:55.179Z,3.00
2018-10-01T01:58:54.394Z,2.70
2018-10-01T01:59:54.381Z,2.60
2018-10-01T02:00:54.366Z,2.60
2018-10-01T02:01:54.368Z,2.80
2018-10-01T02:02:54.400Z,2.80
2018-10-01T02:03:54.350Z,3.00
2018-10-01T02:04:54.344Z,2.90
2018-10-01T02:05:54.368Z,3.20
2018-10-01T02:06:54.407Z,3.10
2018-10-01T02:07:54.359Z,3.10
2018-10-01T02:08:54.360Z,3.30
2018-10-01T02:09:54.334Z,3.20
2018-10-01T02:10:54.321Z,3.30
2018-10-01T02:11:54.328Z,3.50
2018-10-01T02:12:54.312Z,3.40
2018-10-01T02:13:54.348Z,2.90
2018-10-01T02:14:54.318Z,3.30
2018-10-01T02:15:54.294Z,3.40
2018-10-01T02:16:54.289Z,3.20
2018-10-01T02:17:54.280Z,2.80
2018-10-01T02:18:54.314Z,3.00
2018-10-01T02:19:54.312Z,3.00
2018-10-01T02:20:54.277Z,3.30
2018-10-01T02:21:54.272Z,3.30
2018-10-01T02:22:54.317Z,3.00
2018-10-01T02:23:54.256Z,2.80
2018-10-01T02:24:54.256Z,2.80
2018-10-01T02:25:54.241Z,2.40
2018-10-01T02:26:54.269Z,2.60
2018-10-01T02:27:54.246Z,2.40
2018-10-01T02:28:54.233Z,2.60
2018-10-01T02:29:54.228Z,2.50
2018-10-01T02:30:54.220Z,2.70
2018-10-01T02:31:54.254Z,2.30
2018-10-01T02:32:54.219Z,2.70
2018-10-01T02:33:54.241Z,2.70
2018-10-01T02:34:54.201Z,2.70
2018-10-01T02:35:54.200Z,2.70
2018-10-01T02:36:54.206Z,2.70
2018-10-01T02:37:54.183Z,2.80
2018-10-01T02:38:54.206Z,2.90
2018-10-01T02:39:54.167Z,2.90
2018-10-01T02:40:54.173Z,3.00
2018-10-01T02:41:54.203Z,3.20
2018-10-01T02:42:54.193Z,3.10
2018-10-01T02:43:54.210Z,3.00
2018-10-01T02:44:54.175Z,2.90
2018-10-01T02:45:54.165Z,3.60
2018-10-01T02:46:54.165Z,3.10
2018-10-01T02:47:54.228Z,3.50
2018-10-01T02:48:54.162Z,3.20
2018-10-01T02:49:54.119Z,3.40
2018-10-01T02:50:54.125Z,3.10
2018-10-01T02:51:54.122Z,3.30
2018-10-01T02:52:54.112Z,3.50
2018-10-01T02:53:54.160Z,3.20
2018-10-01T02:54:54.094Z,3.30
2018-10-01T02:55:54.090Z,2.80
2018-10-01T02:56:54.123Z,2.80
2018-10-01T02:57:54.079Z,2.80
2018-10-01T02:58:54.076Z,2.80
2018-10-01T02:59:54.104Z,2.70
2018-10-01T03:00:54.087Z,2.70
2018-10-01T03:01:54.070Z,2.60
2018-10-01T03:02:54.062Z,2.90
2018-10-01T03:03:54.049Z,2.50
2018-10-01T03:04:54.084Z,2.70
2018-10-01T03:05:54.042Z,2.50
2018-10-01T03:06:54.082Z,2.80
2018-10-01T03:07:54.050Z,2.60
2018-10-01T03:08:54.037Z,2.90
2018-10-01T03:09:54.051Z,2.60
2018-10-01T03:10:54.025Z,2.40
2018-10-01T03:11:54.009Z,2.60
2018-10-01T03:12:54.003Z,2.70
2018-10-01T03:13:54.052Z,2.30
2018-10-01T03:14:54.019Z,2.60
2018-10-01T03:15:54.023Z,2.80
2018-10-01T03:16:54.024Z,2.40
2018-10-01T03:17:53.993Z,3.20
2018-10-01T03:18:53.979Z,3.70
2018-10-01T03:19:54.015Z,3.10
2018-10-01T03:20:53.961Z,2.70
2018-10-01T03:21:53.960Z,2.80
2018-10-01T03:22:53.979Z,2.70
2018-10-01T03:23:53.991Z,2.60
2018-10-01T03:24:54.009Z,2.90
2018-10-01T03:25:53.946Z,2.80
2018-10-01T03:26:53.931Z,3.20
2018-10-01T03:27:53.947Z,2.90
2018-10-01T03:28:53.933Z,3.00
2018-10-01T03:29:53.952Z,3.10
2018-10-01T03:30:53.947Z,3.30
2018-10-01T03:31:53.918Z,3.50
2018-10-01T03:32:53.921Z,3.70
2018-10-01T03:33:53.958Z,3.80
2018-10-01T03:34:53.898Z,3.90
2018-10-01T03:35:53.899Z,4.20
2018-10-01T03:36:53.891Z,4.00
2018-10-01T03:37:53.891Z,4.10
2018-10-01T03:38:53.911Z,4.20
2018-10-01T03:39:53.908Z,4.30
2018-10-01T03:40:53.878Z,4.50
2018-10-01T03:41:53.868Z,4.00
2018-10-01T03:42:53.899Z,3.90
2018-10-01T03:43:53.883Z,3.50
2018-10-01T03:44:53.860Z,3.60
2018-10-01T03:45:53.856Z,3.50
2018-10-01T03:46:53.843Z,3.80
2018-10-01T03:47:53.846Z,3.80
2018-10-01T03:48:53.865Z,3.70
2018-10-01T03:49:53.857Z,3.60
2018-10-01T03:50:53.840Z,3.50
2018-10-01T03:51:53.819Z,3.40
2018-10-01T03:52:53.816Z,3.50
2018-10-01T03:53:53.813Z,3.50
2018-10-01T03:54:53.841Z,3.80
2018-10-01T03:55:53.797Z,3.70
2018-10-01T03:56:53.791Z,3.70
2018-10-01T03:57:53.786Z,3.40
2018-10-01T03:58:53.786Z,3.70
2018-10-01T03:59:53.828Z,3.70
2018-10-01T04:00:53.776Z,3.80
2018-10-01T04:01:53.775Z,3.30
2018-10-01T04:02:53.810Z,3.50
2018-10-01T04:03:53.759Z,3.90
2018-10-01T04:04:53.780Z,3.50
2018-10-01T04:05:53.802Z,4.00
2018-10-01T04:06:53.761Z,3.60
2018-10-01T04:07:53.739Z,3.60
2018-10-01T04:08:53.822Z,4.10
2018-10-01T04:09:53.761Z,3.90
2018-10-01T04:10:53.725Z,3.90
2018-10-01T04:11:53.758Z,3.60
2018-10-01T04:12:53.719Z,3.40
2018-10-01T04:13:53.765Z,3.70
2018-10-01T04:14:53.716Z,3.80
2018-10-01T04:15:53.698Z,3.30
2018-10-01T04:16:53.693Z,3.00
2018-10-01T04:17:53.698Z,3.10
2018-10-01T04:18:53.716Z,2.90
2018-10-01T04:19:53.734Z,3.50
2018-10-01T04:20:53.682Z,3.20
2018-10-01T04:21:53.676Z,3.60
2018-10-01T04:22:53.683Z,3.60
2018-10-01T04:23:53.719Z,3.20
2018-10-01T04:24:53.664Z,3.50
2018-10-01T04:25:53.707Z,4.10
2018-10-01T04:26:53.670Z,3.70
2018-10-01T04:27:53.676Z,4.00
2018-10-01T04:28:53.638Z,4.10
2018-10-01T04:29:53.638Z,3.90
2018-10-01T04:30:53.632Z,4.10
2018-10-01T04:31:53.645Z,3.90
2018-10-01T04:32:53.695Z,3.70
2018-10-01T04:33:53.646Z,2.90
2018-10-01T04:34:53.623Z,3.00
2018-10-01T04:35:53.623Z,3.10
2018-10-01T04:36:53.637Z,3.20
2018-10-01T04:37:53.643Z,3.60
2018-10-01T04:38:53.623Z,3.90
2018-10-01T04:39:53.606Z,4.10
2018-10-01T04:40:53.632Z,3.80
2018-10-01T04:41:53.597Z,3.80
2018-10-01T04:42:53.614Z,3.90
2018-10-01T04:43:53.581Z,3.90
2018-10-01T04:44:53.558Z,4.10
2018-10-01T04:45:53.588Z,4.20
2018-10-01T04:46:53.665Z,3.70
2018-10-01T04:47:53.614Z,4.10
2018-10-01T04:48:53.581Z,3.80
2018-10-01T04:49:53.572Z,3.70
2018-10-01T04:50:53.560Z,3.90
2018-10-01T04:51:53.546Z,3.90
2018-10-01T04:52:53.570Z,4.10
2018-10-01T04:53:53.548Z,3.80
2018-10-01T04:54:53.514Z,3.60
2018-10-01T04:55:53.550Z,4.00
2018-10-01T04:56:53.508Z,3.60
2018-10-01T04:57:53.493Z,3.40
2018-10-01T04:58:53.544Z,4.20
2018-10-01T04:59:53.508Z,3.40
2018-10-01T05:00:53.524Z,3.50
2018-10-01T05:01:53.534Z,3.50
2018-10-01T05:02:53.496Z,3.10
2018-10-01T05:03:53.496Z,3.50
2018-10-01T05:04:53.506Z,3.20
2018-10-01T05:05:53.481Z,3.60
2018-10-01T05:06:53.472Z,3.30
2018-10-01T05:07:53.507Z,3.50
2018-10-01T05:08:53.508Z,3.60
2018-10-01T05:09:53.449Z,3.60
2018-10-01T05:10:53.445Z,3.60
2018-10-01T05:11:53.444Z,3.60
2018-10-01T05:12:53.447Z,3.20
2018-10-01T05:13:53.466Z,3.40
2018-10-01T05:14:53.594Z,3.20
2018-10-01T05:15:53.467Z,3.50
2018-10-01T05:16:53.430Z,3.40
2018-10-01T05:17:53.397Z,3.60
2018-10-01T05:18:53.419Z,4.80
2018-10-01T05:19:53.404Z,3.40
2018-10-01T05:20:53.450Z,4.00
2018-10-01T05:21:53.414Z,4.00
2018-10-01T05:22:53.394Z,4.10
2018-10-01T05:23:53.395Z,4.20
2018-10-01T05:24:53.377Z,3.50
2018-10-01T05:25:53.401Z,3.20
2018-10-01T05:26:53.410Z,3.50
2018-10-01T05:27:53.386Z,6.90
2018-10-01T05:28:53.364Z,3.80
2018-10-01T05:29:53.346Z,3.40
2018-10-01T05:30:53.385Z,3.60
2018-10-01T05:31:53.388Z,3.40
2018-10-01T05:32:53.362Z,3.50
2018-10-01T05:33:53.324Z,4.40
2018-10-01T05:34:53.333Z,8.60
2018-10-01T05:35:53.316Z,6.50
2018-10-01T05:36:53.329Z,4.20
2018-10-01T05:37:53.344Z,4.60
2018-10-01T05:38:53.339Z,5.00
2018-10-01T05:39:53.342Z,4.80
2018-10-01T05:40:53.308Z,4.60
2018-10-01T05:41:53.403Z,4.10
2018-10-01T05:42:53.333Z,3.40
2018-10-01T05:43:53.294Z,3.00
2018-10-01T05:44:53.285Z,3.30
2018-10-01T05:45:53.314Z,3.20
2018-10-01T05:46:53.303Z,3.00
2018-10-01T05:47:53.363Z,2.90
2018-10-01T05:48:53.288Z,2.80
2018-10-01T05:49:53.288Z,2.80
2018-10-01T05:50:53.287Z,2.70
2018-10-01T05:51:53.273Z,2.80
2018-10-01T05:52:53.298Z,3.00
2018-10-01T05:53:53.260Z,3.30
2018-10-01T05:54:53.242Z,3.10
2018-10-01T05:55:53.228Z,3.30
2018-10-01T05:56:53.336Z,3.10
2018-10-01T05:57:53.259Z,5.50
2018-10-01T05:58:54.228Z,6.30
2018-10-01T05:59:53.217Z,7.80
2018-10-01T06:00:53.221Z,5.40
2018-10-01T06:01:53.247Z,3.80
2018-10-01T06:02:53.245Z,2.70
2018-10-01T06:03:53.337Z,3.30
2018-10-01T06:04:53.348Z,2.70
2018-10-01T06:05:53.287Z,2.60
2018-10-01T06:06:53.423Z,2.40
2018-10-01T06:07:53.354Z,2.70
2018-10-01T06:08:53.185Z,2.90
2018-10-01T06:09:53.191Z,3.10
2018-10-01T06:10:53.256Z,3.50
2018-10-01T06:11:53.226Z,3.20
2018-10-01T06:12:53.205Z,2.80
2018-10-01T06:13:53.215Z,3.20
2018-10-01T06:14:53.163Z,4.80
2018-10-01T06:15:53.322Z,3.40
2018-10-01T06:16:53.196Z,3.40
2018-10-01T06:17:53.163Z,3.00
2018-10-01T06:18:53.191Z,2.90
2018-10-01T06:19:53.142Z,2.70
2018-10-01T06:20:53.148Z,2.80
2018-10-01T06:21:53.160Z,2.80
2018-10-01T06:22:53.190Z,2.50
2018-10-01T06:23:54.173Z,2.60
2018-10-01T06:24:53.149Z,2.60
2018-10-01T06:25:53.128Z,2.80
2018-10-01T06:26:53.131Z,3.20
2018-10-01T06:27:53.152Z,3.60
2018-10-01T06:28:53.131Z,3.30
2018-10-01T06:29:53.129Z,3.00
2018-10-01T06:30:53.134Z,3.70
2018-10-01T06:31:53.124Z,3.30
2018-10-01T06:32:53.135Z,3.50
2018-10-01T06:33:53.193Z,4.10
2018-10-01T06:34:53.117Z,3.80
2018-10-01T06:35:53.130Z,3.90
2018-10-01T06:36:53.114Z,3.90
2018-10-01T06:37:53.168Z,3.90
2018-10-01T06:38:53.089Z,4.40
2018-10-01T06:39:53.125Z,3.90
2018-10-01T06:40:53.104Z,4.10
2018-10-01T06:41:53.206Z,3.70
2018-10-01T06:42:53.108Z,3.80
2018-10-01T06:43:53.095Z,4.20
2018-10-01T06:44:53.313Z,4.10
2018-10-01T06:45:53.071Z,4.20
2018-10-01T06:46:53.074Z,4.00
2018-10-01T06:47:53.088Z,4.40
2018-10-01T06:48:53.109Z,4.00
2018-10-01T06:49:53.066Z,10.30
2018-10-01T06:50:53.094Z,21.60
2018-10-01T06:51:53.062Z,4.10
2018-10-01T06:52:53.086Z,3.70
2018-10-01T06:53:53.061Z,3.50
2018-10-01T06:54:53.064Z,4.20
2018-10-01T06:55:53.034Z,3.50
2018-10-01T06:56:53.030Z,3.50
2018-10-01T06:57:53.066Z,3.00
2018-10-01T06:58:53.197Z,3.10
2018-10-01T06:59:53.038Z,3.50
2018-10-01T07:00:53.016Z,3.00
2018-10-01T07:01:53.023Z,3.30
2018-10-01T07:02:53.057Z,4.10
2018-10-01T07:03:53.038Z,2.90
2018-10-01T07:04:53.058Z,2.60
2018-10-01T07:05:53.216Z,2.90
2018-10-01T07:06:53.010Z,3.10
2018-10-01T07:07:53.026Z,4.60
2018-10-01T07:08:53.006Z,5.50
2018-10-01T07:09:53.047Z,6.20
2018-10-01T07:10:52.999Z,8.20
2018-10-01T07:11:53.033Z,7.10
2018-10-01T07:12:53.042Z,6.50
2018-10-01T07:13:53.001Z,6.20
2018-10-01T07:14:52.999Z,7.40
2018-10-01T07:15:52.981Z,9.00
2018-10-01T07:16:53.048Z,9.80
2018-10-01T07:17:53.013Z,11.50
2018-10-01T07:18:52.973Z,4.20
2018-10-01T07:19:52.978Z,4.40
2018-10-01T07:20:52.977Z,6.50
2018-10-01T07:21:52.976Z,6.20
2018-10-01T07:22:53.077Z,10.20
2018-10-01T07:23:53.016Z,5.20
2018-10-01T07:24:52.969Z,4.50
2018-10-01T07:25:52.969Z,4.00
2018-10-01T07:26:52.972Z,4.00
2018-10-01T07:27:52.998Z,3.70
2018-10-01T07:28:52.972Z,3.60
2018-10-01T07:29:53.008Z,3.80
2018-10-01T07:30:52.956Z,4.20
2018-10-01T07:31:52.969Z,3.90
2018-10-01T07:32:53.003Z,4.10
2018-10-01T07:33:52.956Z,3.70
2018-10-01T07:34:52.965Z,4.00
2018-10-01T07:35:52.988Z,4.10
2018-10-01T07:36:52.972Z,3.80
2018-10-01T07:37:52.985Z,3.70
2018-10-01T07:38:53.068Z,4.30
2018-10-01T07:39:52.961Z,4.10
2018-10-01T07:40:52.993Z,4.10
2018-10-01T07:41:53.000Z,4.20
2018-10-01T07:42:52.955Z,3.90
2018-10-01T07:43:52.968Z,4.00
2018-10-01T07:44:53.024Z,3.90
2018-10-01T07:45:52.970Z,3.80
2018-10-01T07:46:53.010Z,4.20
2018-10-01T07:47:52.957Z,3.80
2018-10-01T07:48:52.950Z,4.10
2018-10-01T07:49:52.974Z,4.00
2018-10-01T07:50:52.985Z,3.70
2018-10-01T07:51:52.999Z,4.20
2018-10-01T07:52:53.014Z,4.10
2018-10-01T07:53:52.969Z,3.60
2018-10-01T07:54:52.947Z,3.80
2018-10-01T07:55:52.970Z,4.30
2018-10-01T07:56:52.961Z,4.20
2018-10-01T07:57:53.004Z,3.80
2018-10-01T07:58:52.959Z,3.70
2018-10-01T07:59:53.008Z,4.10
2018-10-01T08:00:52.937Z,3.70
2018-10-01T08:01:52.945Z,4.00
2018-10-01T08:02:52.989Z,3.90
2018-10-01T08:03:52.940Z,3.70
2018-10-01T08:04:52.940Z,4.30
2018-10-01T08:05:52.948Z,4.40
2018-10-01T08:06:52.942Z,4.10
2018-10-01T08:07:52.968Z,4.50
2018-10-01T08:08:52.967Z,4.10
2018-10-01T08:09:52.932Z,4.10
2018-10-01T08:10:52.941Z,4.10
2018-10-01T08:11:52.971Z,4.60
2018-10-01T08:12:52.936Z,5.10
2018-10-01T08:13:52.937Z,3.90
2018-10-01T08:14:52.943Z,4.00
2018-10-01T08:15:53.030Z,5.80
2018-10-01T08:16:52.931Z,5.20
2018-10-01T08:17:52.971Z,4.70
2018-10-01T08:18:52.927Z,4.40
2018-10-01T08:19:52.936Z,4.50
2018-10-01T08:20:52.931Z,4.50
2018-10-01T08:21:52.934Z,4.20
2018-10-01T08:22:52.971Z,4.20
2018-10-01T08:23:52.932Z,4.50
2018-10-01T08:24:52.937Z,4.30
2018-10-01T08:25:52.933Z,7.40
2018-10-01T08:26:52.964Z,4.00
2018-10-01T08:27:52.963Z,4.40
2018-10-01T08:28:52.976Z,4.20
2018-10-01T08:29:53.043Z,5.20
2018-10-01T08:30:52.934Z,4.00
2018-10-01T08:31:52.938Z,4.20
2018-10-01T08:32:52.968Z,4.70
2018-10-01T08:33:52.973Z,4.50
2018-10-01T08:34:53.017Z,4.60
2018-10-01T08:35:52.941Z,4.50
2018-10-01T08:36:52.934Z,4.50
2018-10-01T08:37:52.991Z,4.10
2018-10-01T08:38:52.994Z,4.10
2018-10-01T08:39:52.931Z,4.00
2018-10-01T08:40:52.961Z,4.40
2018-10-01T08:41:52.935Z,4.70
2018-10-01T08:42:52.970Z,5.10
2018-10-01T08:43:52.939Z,4.50
2018-10-01T08:44:52.932Z,4.20
2018-10-01T08:45:52.935Z,4.60
2018-10-01T08:46:52.974Z,4.50
2018-10-01T08:47:52.956Z,4.90
2018-10-01T08:48:52.929Z,4.60
2018-10-01T08:49:52.931Z,5.10
2018-10-01T08:50:52.933Z,5.70
2018-10-01T08:51:53.035Z,5.80
2018-10-01T08:52:52.962Z,4.90
2018-10-01T08:53:52.933Z,5.30
2018-10-01T08:54:52.988Z,5.90
2018-10-01T08:55:52.936Z,5.70
2018-10-01T08:56:52.934Z,5.00
2018-10-01T08:57:52.968Z,5.20
2018-10-01T08:58:52.948Z,5.20
2018-10-01T08:59:52.941Z,5.40
2018-10-01T09:00:52.935Z,5.40
2018-10-01T09:01:52.935Z,6.20
2018-10-01T09:02:52.988Z,5.90
2018-10-01T09:03:52.936Z,6.20
2018-10-01T09:04:52.942Z,6.60
2018-10-01T09:05:52.940Z,6.60
2018-10-01T09:06:53.034Z,5.90
2018-10-01T09:07:52.972Z,6.30
2018-10-01T09:08:52.996Z,5.20
2018-10-01T09:09:53.126Z,6.00
2018-10-01T09:10:52.947Z,6.10
2018-10-01T09:11:52.955Z,6.00
2018-10-01T09:12:52.983Z,6.20
2018-10-01T09:13:52.952Z,6.30
2018-10-01T09:14:57.832Z,6.20
2018-10-01T09:15:52.953Z,5.50
2018-10-01T09:16:52.951Z,7.20
2018-10-01T09:17:52.989Z,6.00
2018-10-01T09:18:52.953Z,6.30
2018-10-01T09:19:53.011Z,6.40
2018-10-01T09:20:52.961Z,6.10
2018-10-01T09:21:52.961Z,5.90
2018-10-01T09:22:52.992Z,5.20
2018-10-01T09:23:52.970Z,4.70
2018-10-01T09:24:52.961Z,5.80
2018-10-01T09:25:53.002Z,7.10
2018-10-01T09:26:52.966Z,5.80
2018-10-01T09:27:52.997Z,6.50
2018-10-01T09:28:52.976Z,6.80
2018-10-01T09:29:52.970Z,6.20
2018-10-01T09:30:53.010Z,6.30
2018-10-01T09:31:53.034Z,5.70
2018-10-01T09:32:52.972Z,5.80
2018-10-01T09:33:52.992Z,5.20
2018-10-01T09:34:52.972Z,5.70
2018-10-01T09:35:52.975Z,5.60
2018-10-01T09:36:53.013Z,5.90
2018-10-01T09:37:53.018Z,5.40
2018-10-01T09:38:52.975Z,5.70
2018-10-01T09:39:52.977Z,5.70
2018-10-01T09:40:53.013Z,5.70
2018-10-01T09:41:52.988Z,5.40
2018-10-01T09:42:52.984Z,5.60
2018-10-01T09:43:52.984Z,5.40
2018-10-01T09:44:52.990Z,6.30
2018-10-01T09:45:53.022Z,6.50
2018-10-01T09:46:53.050Z,5.70
2018-10-01T09:47:53.044Z,5.80
2018-10-01T09:48:53.009Z,5.90
2018-10-01T09:49:52.999Z,5.10
2018-10-01T09:50:53.003Z,5.30
2018-10-01T09:51:53.037Z,5.80
2018-10-01T09:52:53.034Z,5.70
2018-10-01T09:53:53.117Z,5.80
2018-10-01T09:54:53.012Z,5.20
2018-10-01T09:55:53.013Z,5.30
2018-10-01T09:56:53.052Z,5.40
2018-10-01T09:57:53.012Z,5.00
2018-10-01T09:58:53.023Z,5.60
2018-10-01T09:59:53.021Z,5.60
2018-10-01T10:00:53.809Z,5.70
2018-10-01T10:01:53.065Z,5.80
2018-10-01T10:02:53.022Z,5.60
2018-10-01T10:03:53.062Z,5.80
2018-10-01T10:04:53.071Z,4.70
2018-10-01T10:05:53.066Z,5.40
2018-10-01T10:06:53.062Z,5.50
2018-10-01T10:07:53.027Z,5.30
2018-10-01T10:08:53.039Z,6.00
2018-10-01T10:09:53.041Z,6.40
2018-10-01T10:10:53.031Z,6.60
2018-10-01T10:11:53.057Z,4.80
2018-10-01T10:12:53.036Z,4.40
2018-10-01T10:13:53.041Z,5.90
2018-10-01T10:14:53.076Z,4.90
2018-10-01T10:15:53.043Z,5.80
2018-10-01T10:16:53.175Z,5.90
2018-10-01T10:17:53.076Z,6.30
2018-10-01T10:18:53.038Z,6.20
2018-10-01T10:19:53.044Z,7.30
2018-10-01T10:20:53.076Z,6.50
2018-10-01T10:21:53.079Z,7.50
2018-10-01T10:22:53.129Z,7.00
2018-10-01T10:23:53.045Z,6.30
2018-10-01T10:24:53.045Z,6.40
2018-10-01T10:25:53.070Z,5.60
2018-10-01T10:26:53.084Z,6.10
2018-10-01T10:27:53.057Z,6.50
2018-10-01T10:28:53.061Z,6.20
2018-10-01T10:29:53.049Z,6.00
2018-10-01T10:30:53.062Z,5.80
2018-10-01T10:31:53.088Z,6.10
2018-10-01T10:32:53.077Z,5.80
2018-10-01T10:33:53.092Z,6.10
2018-10-01T10:34:53.059Z,5.50
2018-10-01T10:35:53.062Z,6.30
2018-10-01T10:36:53.093Z,5.90
2018-10-01T10:37:53.070Z,5.90
2018-10-01T10:38:53.065Z,5.80
2018-10-01T10:39:53.064Z,4.80
2018-10-01T10:40:53.057Z,6.00
2018-10-01T10:41:53.122Z,6.50
2018-10-01T10:42:53.105Z,5.30
2018-10-01T10:43:53.087Z,5.70
2018-10-01T10:44:53.056Z,5.80
2018-10-01T10:45:53.066Z,5.80
2018-10-01T10:46:53.068Z,6.00
2018-10-01T10:47:53.092Z,5.50
2018-10-01T10:48:53.097Z,5.40
2018-10-01T10:49:53.061Z,6.00
2018-10-01T10:50:53.076Z,5.10
2018-10-01T10:51:53.095Z,4.90
2018-10-01T10:52:53.060Z,5.20
2018-10-01T10:53:53.070Z,5.10
2018-10-01T10:54:53.060Z,4.60
2018-10-01T10:55:53.062Z,4.80
2018-10-01T10:56:53.189Z,4.40
2018-10-01T10:57:53.062Z,4.40
2018-10-01T10:58:53.058Z,4.10
2018-10-01T10:59:53.083Z,4.10
2018-10-01T11:00:53.068Z,4.90
2018-10-01T11:01:53.061Z,4.10
2018-10-01T11:02:53.093Z,4.80
2018-10-01T11:03:53.098Z,4.50
2018-10-01T11:04:53.064Z,4.30
2018-10-01T11:05:53.072Z,3.90
2018-10-01T11:06:53.100Z,3.80
2018-10-01T11:07:53.066Z,4.30
2018-10-01T11:08:53.057Z,4.60
2018-10-01T11:09:53.060Z,4.50
2018-10-01T11:10:53.065Z,4.10
2018-10-01T11:11:53.083Z,4.10
2018-10-01T11:12:53.106Z,5.10
2018-10-01T11:13:53.070Z,4.90
2018-10-01T11:14:53.240Z,4.70
2018-10-01T11:15:53.059Z,5.00
2018-10-01T11:16:53.093Z,5.10
2018-10-01T11:17:53.086Z,4.80
2018-10-01T11:18:53.278Z,5.10
2018-10-01T11:19:53.158Z,4.10
2018-10-01T11:20:53.162Z,5.40
2018-10-01T11:21:53.145Z,3.70
2018-10-01T11:22:53.100Z,5.00
2018-10-01T11:23:53.061Z,4.20
2018-10-01T11:24:53.046Z,4.50
2018-10-01T11:25:53.058Z,5.10
2018-10-01T11:26:53.143Z,4.00
2018-10-01T11:27:53.141Z,4.40
2018-10-01T11:28:53.062Z,8.00
2018-10-01T11:29:53.046Z,4.60
2018-10-01T11:30:53.056Z,4.60
2018-10-01T11:31:53.345Z,4.80
2018-10-01T11:32:53.053Z,4.00
2018-10-01T11:33:53.040Z,3.50
2018-10-01T11:34:53.084Z,4.30
2018-10-01T11:35:53.029Z,4.30
2018-10-01T11:36:53.072Z,5.00
2018-10-01T11:37:53.029Z,4.40
2018-10-01T11:38:53.027Z,4.40
2018-10-01T11:39:53.034Z,4.30
2018-10-01T11:40:53.029Z,5.50
2018-10-01T11:41:53.070Z,5.90
2018-10-01T11:42:53.036Z,5.60
2018-10-01T11:43:53.030Z,4.10
2018-10-01T11:44:53.021Z,3.30
2018-10-01T11:45:53.035Z,4.90
2018-10-01T11:46:53.051Z,4.90
2018-10-01T11:47:53.046Z,5.70
2018-10-01T11:48:53.014Z,5.00
2018-10-01T11:49:53.015Z,5.40
2018-10-01T11:50:53.065Z,6.80
2018-10-01T11:51:53.060Z,5.90
2018-10-01T11:52:53.014Z,5.50
2018-10-01T11:53:53.005Z,6.60
2018-10-01T11:54:53.032Z,5.40
2018-10-01T11:55:53.010Z,7.10
2018-10-01T11:56:53.067Z,6.50
2018-10-01T11:57:53.043Z,6.30
2018-10-01T11:58:53.008Z,5.60
2018-10-01T11:59:53.014Z,4.80
2018-10-01T12:00:53.019Z,5.80
2018-10-01T12:01:53.036Z,5.40
2018-10-01T12:02:53.017Z,6.00
2018-10-01T12:03:53.089Z,5.60
2018-10-01T12:04:52.989Z,5.70
2018-10-01T12:05:53.010Z,5.20
2018-10-01T12:06:53.017Z,5.20
2018-10-01T12:07:53.023Z,5.80
2018-10-01T12:08:52.992Z,4.70
2018-10-01T12:09:53.124Z,4.90
2018-10-01T12:10:53.008Z,5.30
2018-10-01T12:11:52.994Z,5.60
2018-10-01T12:12:53.031Z,4.90
2018-10-01T12:13:52.977Z,4.80
2018-10-01T12:14:52.992Z,5.00
2018-10-01T12:15:53.128Z,3.90
2018-10-01T12:16:52.996Z,4.20
2018-10-01T12:17:53.029Z,4.40
2018-10-01T12:18:52.984Z,4.30
2018-10-01T12:19:52.977Z,5.50
2018-10-01T12:20:52.991Z,6.70
2018-10-01T12:21:53.027Z,5.50
2018-10-01T12:22:52.992Z,6.10
2018-10-01T12:23:52.965Z,8.00
2018-10-01T12:24:52.970Z,6.80
2018-10-01T12:25:53.023Z,6.60
2018-10-01T12:26:52.990Z,6.10
2018-10-01T12:27:52.971Z,7.60
2018-10-01T12:28:52.968Z,6.80
2018-10-01T12:29:52.939Z,8.60
2018-10-01T12:30:53.005Z,7.40
2018-10-01T12:31:52.987Z,6.50
2018-10-01T12:32:52.987Z,6.70
2018-10-01T12:33:52.938Z,4.20
2018-10-01T12:34:52.977Z,6.10
2018-10-01T12:35:52.943Z,5.60
2018-10-01T12:36:52.984Z,6.00
2018-10-01T12:37:52.950Z,9.40
2018-10-01T12:38:52.918Z,8.60
2018-10-01T12:39:52.964Z,8.20
2018-10-01T12:40:52.971Z,10.30
2018-10-01T12:41:52.974Z,9.10
2018-10-01T12:42:52.943Z,9.30
2018-10-01T12:43:52.964Z,10.50
2018-10-01T12:44:52.956Z,9.00
2018-10-01T12:45:52.939Z,8.90
2018-10-01T12:46:52.982Z,11.20
2018-10-01T12:47:52.913Z,12.40
2018-10-01T12:48:52.896Z,7.50
2018-10-01T12:49:52.906Z,9.30
2018-10-01T12:50:52.891Z,9.00
2018-10-01T12:51:52.942Z,9.60
2018-10-01T12:52:52.877Z,8.70
2018-10-01T12:53:52.897Z,8.80
2018-10-01T12:54:52.889Z,11.90
2018-10-01T12:55:52.911Z,18.20
2018-10-01T12:56:52.938Z,12.40
2018-10-01T12:57:52.887Z,11.60
2018-10-01T12:58:52.898Z,7.90
2018-10-01T12:59:52.881Z,11.10
2018-10-01T13:00:52.895Z,10.70
2018-10-01T13:01:52.922Z,8.70
2018-10-01T13:02:52.875Z,10.30
2018-10-01T13:03:52.866Z,10.10
2018-10-01T13:04:52.958Z,12.60
2018-10-01T13:05:52.885Z,5.20
2018-10-01T13:06:52.909Z,6.70
2018-10-01T13:07:52.921Z,9.40
2018-10-01T13:08:52.873Z,8.90
2018-10-01T13:09:52.876Z,4.70
2018-10-01T13:10:52.871Z,4.40
2018-10-01T13:11:52.907Z,4.90
2018-10-01T13:12:52.876Z,7.80
2018-10-01T13:13:52.864Z,11.30
2018-10-01T13:14:52.879Z,4.80
2018-10-01T13:15:52.874Z,5.10
2018-10-01T13:16:52.882Z,6.80
2018-10-01T13:17:53.714Z,5.70